Skip Navigation LinksHome page > Weather > Current weather Skip Navigation Links

Current Weather

Ndjamena, Chad

For information only: do not use for flight planning or navigation.
Latest weather
Observation time Saturday, August 19, 2017 3:00 AM WAT
Local time Saturday, August 19, 2017 6:14 AM WAT
Flight conditions Visual Meteorological Conditions
Winds
Wind direction West-Northwest (290°)
Wind speed 3 mph
Visibility 6.2 mi.
Sky condition
Ceiling unlimited
Sky clear
Temperature 77°F
Dewpoint 75°F
Altimeter 29.83 in.Hg
Derived measurements
Relative humidity 94%
Heat index 77°F
Density altitude 1962 ft.
Remarks
Ceiling and visibility OK.
No significant changes expected in the next two hours.
METAR FTTJ 190200Z 29003KT CAVOK 25/24 Q1010 NOSIG

Settings

Location code

InnerDrive.Weather 4.0.6144.1 Release CLR 4.0.30319.36366
Copyright ©2015 Inner Drive Technology. All rights reserved. Portions Copyright ©1986-2015 David Braverman.

Find weather

Site navigation


Skip Navigation Links

Place info

Page info

PayPal - The safer, easier way to pay online!

Return home.

Copyright ©2017 Inner Drive Technology. Purveyors of fine, hand-crafted computer software. Page printed 2017-08-19T05:14:38 UTC.